Time;durP1;ratioP1;P1;durP2;ratioP2;P2;SDS_P1;SDS_P2;PMS_P1;PMS_P2;Temp;Humidity;BMP_temperature;BMP_pressure;BME280_temperature;BME280_humidity;BME280_pressure;Samples;Min_cycle;Max_cycle;Signal;HPM_P1;HPM_P2
2022/07/22 00:02:17;;;;;;;9.73;8.80;;;21.20;56.40;;;;;;5110436;28;21120;-78
2022/07/22 00:04:44;;;;;;;10.77;9.87;;;21.10;57.10;;;;;;5113438;28;20467;-78
2022/07/22 00:07:11;;;;;;;10.40;9.50;;;21.00;57.70;;;;;;5115111;28;20519;-78
2022/07/22 00:09:38;;;;;;;10.97;9.83;;;21.00;57.90;;;;;;5115990;28;20517;-78
2022/07/22 00:12:05;;;;;;;9.90;8.90;;;20.90;58.90;;;;;;5112879;28;20454;-78
2022/07/22 00:14:32;;;;;;;10.27;9.27;;;20.80;59.30;;;;;;5112466;28;20841;-79
2022/07/22 00:17:02;;;;;;;10.47;9.50;;;20.80;59.30;;;;;;5109216;28;20479;-77
2022/07/22 00:19:29;;;;;;;9.87;8.97;;;20.80;59.30;;;;;;5115705;28;20534;-77
2022/07/22 00:21:55;;;;;;;10.17;9.37;;;20.80;60.60;;;;;;5118020;28;20451;-77
2022/07/22 00:24:22;;;;;;;13.63;10.50;;;20.70;60.50;;;;;;5118107;28;20787;-75
2022/07/22 00:26:49;;;;;;;10.27;9.30;;;20.70;61.20;;;;;;5108698;28;20418;-78
2022/07/22 00:29:16;;;;;;;11.07;9.97;;;20.70;61.40;;;;;;5110656;28;20413;-77
2022/07/22 00:31:43;;;;;;;10.93;9.93;;;20.60;62.10;;;;;;5109209;28;20804;-76
2022/07/22 00:34:11;;;;;;;10.70;9.80;;;20.50;63.20;;;;;;5110138;28;20513;-78
2022/07/22 00:36:38;;;;;;;11.07;9.70;;;20.50;63.70;;;;;;5109847;28;20459;-79
2022/07/22 00:39:05;;;;;;;10.60;9.50;;;20.50;64.20;;;;;;5111214;28;20537;-79
2022/07/22 00:41:32;;;;;;;10.87;9.83;;;20.50;64.70;;;;;;5113100;28;20459;-78
2022/07/22 00:44:01;;;;;;;10.63;9.67;;;20.40;65.30;;;;;;5116140;28;20481;-80
2022/07/22 00:46:29;;;;;;;12.13;10.87;;;20.40;65.90;;;;;;5111075;28;20460;-76
2022/07/22 00:48:56;;;;;;;11.10;9.90;;;20.40;66.50;;;;;;5110527;28;20439;-76
2022/07/22 00:51:26;;;;;;;12.50;10.27;;;20.40;67.50;;;;;;5114022;28;20426;-77
2022/07/22 00:53:55;;;;;;;11.30;10.30;;;20.30;66.80;;;;;;5112828;28;20513;-78
2022/07/22 00:56:22;;;;;;;10.10;9.10;;;20.30;67.60;;;;;;5112926;28;20456;-77
2022/07/22 00:58:51;;;;;;;12.10;10.90;;;20.30;67.60;;;;;;5117631;28;20445;-77
2022/07/22 01:01:21;;;;;;;12.00;10.33;;;20.20;68.00;;;;;;5116819;28;20405;-78
2022/07/22 01:03:48;;;;;;;11.27;10.20;;;20.20;68.00;;;;;;5116083;28;20448;-78
2022/07/22 01:06:15;;;;;;;11.27;10.17;;;20.10;68.10;;;;;;5112837;28;20566;-77
2022/07/22 01:08:43;;;;;;;11.37;10.30;;;20.10;69.20;;;;;;5109208;28;20426;-78
2022/07/22 01:11:12;;;;;;;12.13;11.03;;;20.00;69.60;;;;;;5109587;28;20510;-79
2022/07/22 01:13:40;;;;;;;12.37;11.27;;;20.00;70.40;;;;;;5105239;28;20513;-76
2022/07/22 01:16:08;;;;;;;12.50;11.30;;;20.00;70.90;;;;;;5104978;28;20569;-76
2022/07/22 01:18:36;;;;;;;15.43;11.10;;;20.00;71.20;;;;;;5105585;28;20468;-76
2022/07/22 01:21:05;;;;;;;12.93;11.63;;;19.90;71.90;;;;;;5112765;28;20444;-77
2022/07/22 01:23:32;;;;;;;12.17;10.97;;;19.90;72.20;;;;;;5116316;28;20421;-78
2022/07/22 01:25:59;;;;;;;13.20;11.50;;;19.90;72.20;;;;;;5118160;28;20473;-76
2022/07/22 01:28:26;;;;;;;13.40;11.63;;;19.90;72.80;;;;;;5116065;28;20512;-77
2022/07/22 01:30:53;;;;;;;11.70;10.67;;;19.80;73.80;;;;;;5107762;28;20447;-76
2022/07/22 01:33:22;;;;;;;13.43;12.13;;;19.80;75.20;;;;;;5102257;28;20425;-77
2022/07/22 01:35:49;;;;;;;14.80;12.60;;;19.70;76.40;;;;;;5107901;28;20438;-77
2022/07/22 01:38:17;;;;;;;17.47;12.30;;;19.60;77.50;;;;;;5108383;28;20467;-77
2022/07/22 01:40:45;;;;;;;11.53;10.40;;;19.50;78.70;;;;;;5099359;28;20429;-76
2022/07/22 01:43:16;;;;;;;11.67;10.60;;;19.50;79.40;;;;;;5089636;28;20456;-75
2022/07/22 01:45:43;;;;;;;13.40;11.47;;;19.40;80.50;;;;;;5091046;28;20517;-76
2022/07/22 01:48:10;;;;;;;12.33;11.13;;;19.30;80.80;;;;;;5095716;28;20799;-78
2022/07/22 01:50:37;;;;;;;13.50;12.20;;;19.30;81.70;;;;;;5096654;28;20962;-76
2022/07/22 01:53:03;;;;;;;12.30;11.20;;;19.20;82.60;;;;;;5100066;28;20426;-78
2022/07/22 01:55:32;;;;;;;12.60;11.40;;;19.20;83.40;;;;;;5101292;28;20467;-77
2022/07/22 01:57:58;;;;;;;16.37;11.47;;;19.20;83.70;;;;;;5088379;28;20456;-78
2022/07/22 02:00:26;;;;;;;13.80;12.40;;;19.20;84.20;;;;;;5075832;28;20636;-78
2022/07/22 02:02:53;;;;;;;13.07;11.83;;;19.20;84.60;;;;;;5083396;28;20428;-78
2022/07/22 02:05:19;;;;;;;13.17;11.87;;;19.20;84.80;;;;;;5097693;28;20536;-76
2022/07/22 02:07:46;;;;;;;12.93;11.53;;;19.10;85.20;;;;;;5095720;28;20433;-76
2022/07/22 02:10:13;;;;;;;13.70;12.40;;;19.10;85.90;;;;;;5097177;28;20425;-76
2022/07/22 02:12:42;;;;;;;13.50;11.57;;;19.10;86.10;;;;;;5098051;28;20453;-76
2022/07/22 02:15:09;;;;;;;12.20;10.90;;;19.00;86.70;;;;;;5108704;28;20475;-77
2022/07/22 02:17:36;;;;;;;12.10;10.90;;;19.00;86.90;;;;;;5113029;28;20492;-77
2022/07/22 02:20:04;;;;;;;14.23;12.83;;;18.90;88.50;;;;;;5104842;28;21221;-78
2022/07/22 02:22:31;;;;;;;13.80;12.40;;;18.90;88.60;;;;;;5108860;28;20431;-77
2022/07/22 02:24:58;;;;;;;13.73;12.43;;;18.90;88.70;;;;;;5111413;28;20545;-77
2022/07/22 02:27:25;;;;;;;13.70;12.10;;;18.80;89.40;;;;;;5105246;28;20527;-79
2022/07/22 02:29:54;;;;;;;13.50;12.30;;;18.80;90.20;;;;;;5101000;28;20452;-77
2022/07/22 02:32:20;;;;;;;13.27;11.90;;;18.80;90.40;;;;;;5102988;28;20517;-78
2022/07/22 02:34:47;;;;;;;13.60;12.20;;;18.70;90.40;;;;;;5103493;28;20487;-78
2022/07/22 02:37:14;;;;;;;13.00;11.70;;;18.80;90.80;;;;;;5105198;28;20456;-79
2022/07/22 02:39:41;;;;;;;14.20;12.70;;;18.70;90.60;;;;;;5093040;28;20461;-76
2022/07/22 02:42:08;;;;;;;13.93;12.63;;;18.70;90.80;;;;;;5118475;28;20451;-76
2022/07/22 02:44:35;;;;;;;13.37;12.07;;;18.80;91.10;;;;;;5118574;28;20456;-79
2022/07/22 02:47:03;;;;;;;14.37;12.87;;;18.70;91.10;;;;;;5118184;28;20437;-80
2022/07/22 02:49:30;;;;;;;16.13;12.60;;;18.70;91.20;;;;;;5118072;28;20410;-76
2022/07/22 02:51:57;;;;;;;14.90;13.03;;;18.70;91.50;;;;;;5116694;28;20442;-78
2022/07/22 02:54:25;;;;;;;18.37;12.80;;;18.70;91.30;;;;;;5109371;28;20771;-77
2022/07/22 02:56:52;;;;;;;12.97;11.63;;;18.70;91.20;;;;;;5101909;28;20421;-77
2022/07/22 02:59:18;;;;;;;13.87;12.57;;;18.70;91.20;;;;;;5101903;28;20450;-77
2022/07/22 03:01:45;;;;;;;14.60;13.10;;;18.70;91.20;;;;;;5115715;28;20471;-77
2022/07/22 03:04:13;;;;;;;13.23;12.03;;;18.70;91.30;;;;;;5107705;28;20418;-80
2022/07/22 03:06:40;;;;;;;13.80;12.40;;;18.60;91.60;;;;;;5108622;28;20519;-76
2022/07/22 03:09:07;;;;;;;15.07;13.50;;;18.60;91.70;;;;;;5104791;28;20443;-79
2022/07/22 03:11:34;;;;;;;13.77;12.37;;;18.60;91.70;;;;;;5098449;28;20927;-78
2022/07/22 03:14:01;;;;;;;17.10;12.90;;;18.60;91.70;;;;;;5098742;28;20558;-77
2022/07/22 03:16:28;;;;;;;14.50;13.00;;;18.50;91.80;;;;;;5099006;28;20430;-77
2022/07/22 03:18:54;;;;;;;14.37;12.97;;;18.50;92.10;;;;;;5097073;28;20463;-76
2022/07/22 03:21:23;;;;;;;14.47;13.07;;;18.50;92.20;;;;;;5096696;28;20929;-77
2022/07/22 03:23:53;;;;;;;15.23;13.60;;;18.40;92.40;;;;;;5103827;28;20425;-80
2022/07/22 03:26:20;;;;;;;13.87;12.10;;;18.40;92.90;;;;;;5088063;28;20446;-77
2022/07/22 03:28:47;;;;;;;14.53;13.33;;;18.30;93.00;;;;;;5087787;28;20910;-76
2022/07/22 03:31:15;;;;;;;14.77;13.47;;;18.40;93.30;;;;;;5109298;28;20439;-78
2022/07/22 03:33:42;;;;;;;15.20;13.50;;;18.30;93.20;;;;;;5110752;28;20439;-79
2022/07/22 03:36:09;;;;;;;15.10;13.57;;;18.30;93.20;;;;;;5103556;28;20694;-78
2022/07/22 03:38:38;;;;;;;14.47;13.13;;;18.30;93.50;;;;;;5100306;28;20490;-78
2022/07/22 03:41:05;;;;;;;14.00;12.70;;;18.30;93.50;;;;;;5101594;28;20486;-78
2022/07/22 03:43:32;;;;;;;14.27;12.97;;;18.30;93.40;;;;;;5097340;28;20961;-78
2022/07/22 03:45:59;;;;;;;14.90;13.40;;;18.20;93.80;;;;;;5100063;28;20477;-78
2022/07/22 03:48:26;;;;;;;14.67;13.27;;;18.20;93.70;;;;;;5084823;28;20464;-77
2022/07/22 03:50:53;;;;;;;14.30;12.80;;;18.20;93.90;;;;;;5099780;28;20494;-79
2022/07/22 03:53:20;;;;;;;13.73;12.27;;;18.10;94.10;;;;;;5096979;28;20418;-79
2022/07/22 03:55:48;;;;;;;14.83;13.47;;;18.10;94.30;;;;;;5095896;28;20501;-77
2022/07/22 03:58:16;;;;;;;14.73;13.30;;;18.10;94.60;;;;;;5097435;28;20455;-79
2022/07/22 04:00:43;;;;;;;13.50;12.20;;;18.10;94.50;;;;;;5098008;28;20478;-77
2022/07/22 04:03:10;;;;;;;13.60;12.07;;;18.10;94.50;;;;;;5093169;28;20490;-78
2022/07/22 04:05:37;;;;;;;14.80;13.50;;;18.10;94.20;;;;;;5094931;28;20453;-77
2022/07/22 04:08:04;;;;;;;14.20;12.83;;;18.10;94.00;;;;;;5098501;28;20459;-78
2022/07/22 04:10:31;;;;;;;14.23;12.77;;;18.00;94.00;;;;;;5098347;28;20935;-77
2022/07/22 04:12:59;;;;;;;14.87;13.47;;;18.10;93.80;;;;;;5099868;28;20446;-78
2022/07/22 04:15:26;;;;;;;16.77;12.37;;;18.10;93.50;;;;;;5099798;28;20990;-79
2022/07/22 04:17:52;;;;;;;15.13;12.73;;;18.10;93.10;;;;;;5099660;28;20485;-78
2022/07/22 04:20:20;;;;;;;13.80;12.40;;;18.10;93.50;;;;;;5099282;28;20494;-77
2022/07/22 04:22:46;;;;;;;13.50;12.20;;;18.10;92.90;;;;;;5098764;28;20546;-77
2022/07/22 04:25:14;;;;;;;13.57;12.33;;;18.10;92.80;;;;;;5098718;28;20483;-77
2022/07/22 04:27:41;;;;;;;13.77;12.43;;;18.20;92.40;;;;;;5098763;28;20553;-79
2022/07/22 04:30:10;;;;;;;14.03;12.63;;;18.30;91.50;;;;;;5098979;28;20459;-77
2022/07/22 04:32:37;;;;;;;13.33;12.03;;;18.30;91.00;;;;;;5100174;28;20451;-77
2022/07/22 04:35:05;;;;;;;13.83;12.53;;;18.40;90.90;;;;;;5102414;28;21001;-77
2022/07/22 04:37:32;;;;;;;14.20;12.40;;;18.30;90.50;;;;;;5101777;28;20426;-77
2022/07/22 04:39:59;;;;;;;13.50;12.30;;;18.40;90.30;;;;;;5086919;28;20479;-77
2022/07/22 04:42:26;;;;;;;13.80;12.50;;;18.40;90.40;;;;;;5088001;28;20475;-80
2022/07/22 04:44:53;;;;;;;12.10;10.90;;;18.50;89.90;;;;;;5111243;28;20490;-77
2022/07/22 04:47:21;;;;;;;13.07;11.47;;;18.50;88.40;;;;;;5113173;28;20637;-76
2022/07/22 04:49:48;;;;;;;13.57;12.27;;;18.60;86.30;;;;;;5098607;28;20440;-78
2022/07/22 04:52:15;;;;;;;12.87;11.57;;;18.60;85.50;;;;;;5098625;28;20429;-77
2022/07/22 04:54:42;;;;;;;12.10;10.93;;;18.80;84.30;;;;;;5097890;28;20475;-77
2022/07/22 04:57:08;;;;;;;13.40;12.03;;;18.90;82.00;;;;;;5097599;28;20447;-77
2022/07/22 04:59:35;;;;;;;13.83;12.20;;;18.90;80.70;;;;;;5097773;28;20466;-77
2022/07/22 05:02:02;;;;;;;13.70;11.90;;;18.90;80.80;;;;;;5097242;28;20459;-76
2022/07/22 05:04:31;;;;;;;12.90;11.60;;;19.00;80.10;;;;;;5098391;28;20449;-79
2022/07/22 05:06:58;;;;;;;17.57;11.27;;;19.10;79.00;;;;;;5097723;28;20536;-78
2022/07/22 05:09:24;;;;;;;11.20;10.00;;;19.70;74.70;;;;;;5098523;28;20494;-77
2022/07/22 05:11:51;;;;;;;11.20;10.10;;;20.10;70.00;;;;;;5097348;28;20792;-77
2022/07/22 05:14:19;;;;;;;10.50;9.50;;;20.70;66.50;;;;;;5099009;28;20441;-77
2022/07/22 05:16:46;;;;;;;11.37;10.30;;;21.00;61.80;;;;;;5097445;28;20493;-77
2022/07/22 05:19:13;;;;;;;11.90;10.13;;;20.60;63.80;;;;;;5099164;28;20441;-78
2022/07/22 05:21:42;;;;;;;11.30;10.20;;;20.90;61.80;;;;;;5100682;28;20523;-77
2022/07/22 05:24:09;;;;;;;11.47;10.23;;;21.10;59.60;;;;;;5107239;28;20455;-79
2022/07/22 05:26:36;;;;;;;15.03;11.30;;;21.30;59.80;;;;;;5110742;28;20538;-78
2022/07/22 05:29:03;;;;;;;12.20;10.60;;;21.00;59.50;;;;;;5110116;28;20547;-77
2022/07/22 05:31:30;;;;;;;13.33;9.70;;;21.30;58.60;;;;;;5100296;28;20456;-77
2022/07/22 05:33:57;;;;;;;11.30;10.30;;;21.60;58.00;;;;;;5098421;28;20791;-76
2022/07/22 05:36:24;;;;;;;11.17;9.73;;;21.40;58.30;;;;;;5100049;28;20467;-78
2022/07/22 05:38:52;;;;;;;11.40;10.30;;;21.50;57.00;;;;;;5103388;28;20491;-77
2022/07/22 05:41:18;;;;;;;11.23;10.13;;;21.10;59.30;;;;;;5106484;28;20482;-78
2022/07/22 05:43:45;;;;;;;10.73;9.63;;;21.10;59.60;;;;;;5108849;28;20443;-77
2022/07/22 05:46:12;;;;;;;10.80;9.80;;;21.10;59.60;;;;;;5107173;28;20553;-78
2022/07/22 05:48:39;;;;;;;14.43;10.00;;;21.20;58.80;;;;;;5100778;28;20935;-77
2022/07/22 05:51:12;;;;;;;13.33;10.10;;;21.00;59.50;;;;;;5104637;28;20546;-77
2022/07/22 05:53:39;;;;;;;10.63;9.53;;;21.60;57.30;;;;;;5106462;28;20496;-79
2022/07/22 05:56:08;;;;;;;9.67;8.87;;;21.30;59.20;;;;;;5101806;28;20529;-77
2022/07/22 05:58:35;;;;;;;11.70;8.47;;;21.80;56.30;;;;;;5099159;28;20465;-78
2022/07/22 06:01:02;;;;;;;11.57;10.37;;;21.80;56.90;;;;;;5100437;28;20456;-77
2022/07/22 06:03:29;;;;;;;10.77;9.77;;;21.60;57.00;;;;;;5098691;28;20517;-76
2022/07/22 06:05:56;;;;;;;10.57;9.50;;;21.40;58.30;;;;;;5098468;28;20446;-77
2022/07/22 06:08:23;;;;;;;11.47;10.37;;;21.60;57.70;;;;;;5099869;28;20426;-77
2022/07/22 06:10:49;;;;;;;12.10;10.03;;;22.00;55.90;;;;;;5095420;28;20793;-77
2022/07/22 06:13:18;;;;;;;9.90;8.90;;;21.90;57.40;;;;;;5095387;28;20551;-77
2022/07/22 06:15:44;;;;;;;10.83;9.73;;;22.50;54.20;;;;;;5095632;28;20475;-77
2022/07/22 06:18:11;;;;;;;9.77;8.87;;;22.90;52.30;;;;;;5095393;28;20465;-76
2022/07/22 06:20:38;;;;;;;10.63;9.63;;;23.50;51.10;;;;;;5095294;28;20590;-76
2022/07/22 06:23:05;;;;;;;12.50;9.93;;;23.90;48.70;;;;;;5100012;28;20440;-78
2022/07/22 06:25:32;;;;;;;10.70;9.60;;;23.90;48.80;;;;;;5099142;28;20459;-76
2022/07/22 06:27:59;;;;;;;12.50;9.23;;;23.50;50.70;;;;;;5099329;28;20421;-79
2022/07/22 06:30:28;;;;;;;13.97;10.00;;;23.60;49.60;;;;;;5097468;28;20422;-76
2022/07/22 06:32:56;;;;;;;13.40;8.90;;;22.90;52.50;;;;;;5098592;28;20454;-77
2022/07/22 06:35:24;;;;;;;9.77;8.87;;;23.00;52.40;;;;;;5103792;28;20496;-80
2022/07/22 06:37:51;;;;;;;10.50;9.50;;;22.90;51.60;;;;;;5117402;28;20471;-81
2022/07/22 06:40:19;;;;;;;10.90;9.90;;;22.50;53.20;;;;;;5117839;28;20459;-81
2022/07/22 06:42:45;;;;;;;11.27;9.83;;;22.30;54.80;;;;;;5117608;28;20430;-80
2022/07/22 06:45:12;;;;;;;10.80;9.73;;;23.00;52.10;;;;;;5118512;28;20482;-80
2022/07/22 06:47:41;;;;;;;10.23;9.43;;;23.40;52.00;;;;;;5118290;28;20435;-77
2022/07/22 06:50:10;;;;;;;12.70;10.20;;;22.80;53.10;;;;;;5116650;28;20436;-77
2022/07/22 06:52:40;;;;;;;11.60;9.10;;;22.60;54.30;;;;;;5115631;28;20409;-78
2022/07/22 06:55:08;;;;;;;11.27;10.07;;;23.30;51.90;;;;;;5103187;28;20517;-77
2022/07/22 06:57:35;;;;;;;11.97;10.30;;;23.60;50.30;;;;;;5096898;28;20462;-76
2022/07/22 07:00:02;;;;;;;11.43;10.13;;;22.70;53.20;;;;;;5095900;28;20933;-78
2022/07/22 07:02:29;;;;;;;11.20;9.93;;;22.40;54.40;;;;;;5097359;28;20546;-78
2022/07/22 07:04:57;;;;;;;14.90;11.17;;;22.30;55.10;;;;;;5085643;28;20444;-77
2022/07/22 07:07:24;;;;;;;14.17;11.13;;;22.00;57.30;;;;;;5077157;28;20769;-77
2022/07/22 07:09:51;;;;;;;11.63;10.57;;;21.60;58.90;;;;;;5076004;28;20552;-78
2022/07/22 07:12:17;;;;;;;13.20;11.10;;;21.80;59.10;;;;;;5076769;28;20419;-77
2022/07/22 07:14:44;;;;;;;12.50;11.03;;;22.10;57.30;;;;;;5077815;28;20470;-77
2022/07/22 07:17:11;;;;;;;11.63;10.60;;;21.90;58.30;;;;;;5096914;28;20427;-78
2022/07/22 07:19:38;;;;;;;12.47;11.23;;;21.70;58.90;;;;;;5096942;28;20453;-77
2022/07/22 07:22:06;;;;;;;11.97;10.60;;;21.50;60.00;;;;;;5089099;28;20456;-77
2022/07/22 07:24:36;;;;;;;11.67;10.47;;;21.60;60.00;;;;;;5079765;28;20461;-77
2022/07/22 07:27:04;;;;;;;14.40;10.30;;;21.90;58.80;;;;;;5084455;28;20454;-76
2022/07/22 07:29:30;;;;;;;11.50;10.30;;;21.90;58.80;;;;;;5088865;28;20422;-77
2022/07/22 07:31:57;;;;;;;14.60;10.33;;;21.80;60.20;;;;;;5088176;28;20455;-76
2022/07/22 07:34:24;;;;;;;11.87;10.67;;;21.90;59.60;;;;;;5088823;28;20420;-76
2022/07/22 07:36:51;;;;;;;11.20;10.17;;;22.10;57.90;;;;;;5090413;28;20475;-78
2022/07/22 07:39:19;;;;;;;16.97;9.77;;;22.20;58.00;;;;;;5087753;28;20438;-77
2022/07/22 07:41:46;;;;;;;12.33;11.23;;;22.20;57.30;;;;;;5090287;28;20504;-77
2022/07/22 07:44:14;;;;;;;12.63;10.37;;;22.30;57.30;;;;;;5150759;22;20536;-82
2022/07/22 07:46:41;;;;;;;13.57;10.73;;;22.40;56.70;;;;;;5127831;28;20931;-79
2022/07/22 07:49:08;;;;;;;10.87;9.77;;;22.40;56.50;;;;;;5123484;28;20441;-79
2022/07/22 07:51:35;;;;;;;11.40;10.30;;;22.50;56.80;;;;;;5124603;28;20529;-78
2022/07/22 07:54:03;;;;;;;14.07;10.73;;;22.60;56.40;;;;;;5111561;28;20930;-82
2022/07/22 07:56:31;;;;;;;10.27;9.27;;;22.70;55.90;;;;;;5105764;28;20423;-79
2022/07/22 07:58:58;;;;;;;10.47;9.53;;;22.80;55.50;;;;;;5106685;28;20507;-79
2022/07/22 08:01:25;;;;;;;12.47;10.40;;;22.90;54.80;;;;;;5108408;28;20973;-80
2022/07/22 08:03:52;;;;;;;13.53;10.90;;;22.90;53.70;;;;;;5112235;28;20506;-80
2022/07/22 08:06:19;;;;;;;10.60;9.53;;;22.90;53.70;;;;;;5113350;28;20460;-79
2022/07/22 08:08:46;;;;;;;10.70;9.77;;;22.70;53.40;;;;;;5113156;28;20479;-79
2022/07/22 08:11:14;;;;;;;12.20;11.00;;;22.80;52.70;;;;;;5113347;28;20482;-80
2022/07/22 08:13:48;;;;;;;10.97;9.87;;;22.70;53.30;;;;;;5112149;28;20431;-82
2022/07/22 08:16:16;;;;;;;10.77;9.70;;;22.70;53.30;;;;;;5107554;28;20459;-81
2022/07/22 08:18:43;;;;;;;10.23;9.00;;;22.50;54.10;;;;;;5108520;28;20451;-81
2022/07/22 08:21:10;;;;;;;10.90;9.80;;;22.80;53.20;;;;;;5106360;28;20488;-79
2022/07/22 08:23:37;;;;;;;11.30;10.10;;;23.00;52.80;;;;;;5106058;28;20474;-81
2022/07/22 08:26:04;;;;;;;11.67;10.33;;;23.10;51.80;;;;;;5106835;28;20466;-79
2022/07/22 08:28:31;;;;;;;10.43;9.37;;;23.40;51.30;;;;;;5106336;28;20459;-79
2022/07/22 08:30:59;;;;;;;10.00;9.10;;;23.40;50.90;;;;;;5094513;28;20510;-81
2022/07/22 08:33:26;;;;;;;10.30;9.20;;;23.40;51.30;;;;;;5091895;28;20515;-83
2022/07/22 08:35:53;;;;;;;9.90;8.90;;;23.40;51.00;;;;;;5114135;28;20413;-80
2022/07/22 08:38:19;;;;;;;10.60;9.50;;;23.70;49.80;;;;;;5104727;28;20511;-81
2022/07/22 08:40:46;;;;;;;11.00;10.00;;;23.80;49.90;;;;;;5090425;28;20460;-80
2022/07/22 08:43:13;;;;;;;10.17;9.20;;;23.70;50.40;;;;;;5094102;28;20597;-80
2022/07/22 08:45:41;;;;;;;11.47;9.60;;;23.80;50.20;;;;;;5108872;28;20439;-81
2022/07/22 08:48:10;;;;;;;10.83;9.63;;;24.00;49.50;;;;;;5102854;28;20506;-82
2022/07/22 08:50:37;;;;;;;14.67;10.30;;;24.10;48.70;;;;;;5097192;28;20427;-79
2022/07/22 08:53:04;;;;;;;9.40;8.60;;;24.00;48.50;;;;;;5095416;28;20528;-79
2022/07/22 08:55:31;;;;;;;11.50;9.43;;;24.20;48.40;;;;;;5100971;28;20451;-81
2022/07/22 08:57:58;;;;;;;9.60;8.80;;;24.50;47.90;;;;;;5097213;28;20440;-81
2022/07/22 09:00:25;;;;;;;8.97;8.17;;;24.30;47.60;;;;;;5095974;28;20486;-78
2022/07/22 09:02:52;;;;;;;10.20;9.30;;;24.60;46.80;;;;;;5099819;28;20462;-80
2022/07/22 09:05:20;;;;;;;10.73;8.43;;;24.70;46.10;;;;;;5087872;28;20475;-78
2022/07/22 09:07:47;;;;;;;17.07;10.30;;;24.60;46.50;;;;;;5101335;28;20411;-79
2022/07/22 09:10:16;;;;;;;16.93;9.93;;;24.50;46.90;;;;;;5115032;28;20744;-78
2022/07/22 09:12:58;;;;;;;15.77;10.03;;;24.70;46.50;;;;;;5094460;28;20518;-80
2022/07/22 09:15:29;;;;;;;9.83;8.83;;;24.80;46.40;;;;;;5101791;28;20962;-80
2022/07/22 09:17:59;;;;;;;10.27;8.47;;;24.70;46.60;;;;;;5103477;28;20477;-81
2022/07/22 09:20:28;;;;;;;9.17;8.47;;;24.70;46.80;;;;;;5084797;28;20509;-79
2022/07/22 09:22:55;;;;;;;10.10;9.30;;;24.80;45.60;;;;;;5082921;28;20459;-79
2022/07/22 09:25:29;;;;;;;8.23;7.50;;;25.10;45.00;;;;;;5084079;28;20536;-79
2022/07/22 09:28:09;;;;;;;8.57;7.67;;;25.30;43.70;;;;;;5087496;28;20460;-76
2022/07/22 09:30:39;;;;;;;9.03;8.23;;;25.20;44.80;;;;;;5104301;28;20486;-79
2022/07/22 09:33:07;;;;;;;10.20;9.20;;;25.60;43.90;;;;;;5101037;28;20476;-79
2022/07/22 09:35:35;;;;;;;8.80;8.10;;;25.90;43.30;;;;;;5085318;28;20486;-79
2022/07/22 09:38:04;;;;;;;10.50;8.63;;;25.80;43.20;;;;;;5103372;28;20453;-80
2022/07/22 09:40:34;;;;;;;9.50;8.70;;;25.90;42.90;;;;;;5105729;28;20975;-78
2022/07/22 09:43:03;;;;;;;9.33;8.47;;;26.20;42.00;;;;;;5100920;28;20494;-81
2022/07/22 09:45:32;;;;;;;10.17;9.17;;;26.10;41.80;;;;;;5090671;28;20506;-78
2022/07/22 09:48:01;;;;;;;9.20;8.50;;;25.80;42.70;;;;;;5092572;28;20452;-78
2022/07/22 09:50:30;;;;;;;11.27;8.70;;;26.00;41.70;;;;;;5101514;28;20957;-79
2022/07/22 09:53:00;;;;;;;8.90;8.20;;;26.00;41.70;;;;;;5087361;28;20490;-79
2022/07/22 09:55:28;;;;;;;11.90;8.80;;;26.00;42.20;;;;;;5094762;28;20792;-79
2022/07/22 09:57:57;;;;;;;8.53;7.73;;;26.30;41.60;;;;;;5086428;28;21049;-80
2022/07/22 10:00:26;;;;;;;12.37;8.67;;;26.50;40.90;;;;;;5091444;28;20426;-80
2022/07/22 10:02:55;;;;;;;8.47;7.77;;;26.70;40.00;;;;;;5083484;28;20491;-79
2022/07/22 10:05:23;;;;;;;9.10;8.27;;;26.70;39.90;;;;;;5081889;28;20428;-78
2022/07/22 10:07:51;;;;;;;8.87;8.10;;;26.70;39.30;;;;;;5107755;28;20551;-79
2022/07/22 10:10:21;;;;;;;12.67;7.33;;;26.40;40.20;;;;;;5105286;28;20428;-77
2022/07/22 10:12:50;;;;;;;8.90;8.20;;;26.60;40.90;;;;;;5094256;28;20507;-78
2022/07/22 10:15:17;;;;;;;9.20;7.80;;;27.00;39.10;;;;;;5094421;28;20617;-78
2022/07/22 10:17:47;;;;;;;9.27;8.33;;;26.90;38.60;;;;;;5095491;28;20450;-77
2022/07/22 10:20:18;;;;;;;9.17;7.57;;;26.80;38.50;;;;;;5114797;28;20469;-77
2022/07/22 10:22:58;;;;;;;9.10;8.40;;;26.80;38.80;;;;;;5113853;28;20524;-79
2022/07/22 10:25:28;;;;;;;9.27;7.83;;;27.10;38.40;;;;;;5114679;28;20486;-80
2022/07/22 10:27:57;;;;;;;8.83;8.03;;;27.40;36.80;;;;;;5115482;28;20431;-77
2022/07/22 10:30:26;;;;;;;8.73;7.93;;;27.20;37.60;;;;;;5112747;28;20473;-80
2022/07/22 10:33:08;;;;;;;7.50;6.80;;;27.20;37.50;;;;;;5108863;28;20451;-78
2022/07/22 10:35:37;;;;;;;8.13;7.13;;;27.50;37.10;;;;;;5115103;28;20405;-78
2022/07/22 10:38:07;;;;;;;10.47;8.53;;;27.60;35.90;;;;;;5105885;28;21237;-79
2022/07/22 10:40:50;;;;;;;11.23;8.07;;;27.60;37.10;;;;;;5100564;28;20477;-79
2022/07/22 10:43:18;;;;;;;9.07;8.30;;;27.60;36.10;;;;;;5093628;28;20509;-79
2022/07/22 10:45:51;;;;;;;8.13;7.43;;;27.70;35.40;;;;;;5078885;28;20491;-78
2022/07/22 10:48:21;;;;;;;8.80;8.10;;;27.90;35.90;;;;;;5078041;28;20516;-80
2022/07/22 10:50:50;;;;;;;8.47;7.67;;;28.20;35.40;;;;;;5076277;28;20787;-79
2022/07/22 10:53:21;;;;;;;9.33;8.43;;;28.30;34.10;;;;;;5088423;28;20499;-79
2022/07/22 10:56:09;;;;;;;8.57;7.80;;;28.00;35.30;;;;;;5096673;28;20429;-80
2022/07/22 10:58:51;;;;;;;9.97;8.23;;;28.20;35.40;;;;;;5097456;28;20882;-79
2022/07/22 11:01:20;;;;;;;9.07;8.20;;;28.60;33.80;;;;;;5079796;28;20449;-80
2022/07/22 11:03:49;;;;;;;8.97;8.07;;;28.50;34.10;;;;;;5086691;28;20507;-79
2022/07/22 11:06:19;;;;;;;8.83;7.57;;;28.50;33.60;;;;;;5100830;28;20422;-78
2022/07/22 11:08:49;;;;;;;9.00;8.17;;;28.40;33.90;;;;;;5110264;28;20470;-80
2022/07/22 11:11:17;;;;;;;8.30;7.50;;;28.20;34.20;;;;;;5114709;28;20421;-77
2022/07/22 11:13:45;;;;;;;8.80;8.00;;;28.20;34.40;;;;;;5115075;28;20502;-77
2022/07/22 11:16:21;;;;;;;8.73;7.93;;;28.50;33.30;;;;;;5098315;28;20455;-77
2022/07/22 11:18:54;;;;;;;8.27;7.47;;;28.80;32.30;;;;;;5079522;28;20430;-78
2022/07/22 11:21:23;;;;;;;8.37;7.43;;;28.80;32.70;;;;;;5092089;28;20459;-80
2022/07/22 11:23:52;;;;;;;12.53;7.60;;;28.90;32.00;;;;;;5103131;28;20448;-78
2022/07/22 11:26:25;;;;;;;8.43;7.83;;;28.50;32.80;;;;;;5094556;28;20440;-79
2022/07/22 11:28:52;;;;;;;9.33;8.13;;;28.40;33.10;;;;;;5088212;28;20439;-78
2022/07/22 11:31:20;;;;;;;9.53;8.63;;;28.70;32.50;;;;;;5081457;28;20459;-78
2022/07/22 11:33:47;;;;;;;8.43;7.57;;;28.70;32.10;;;;;;5083247;28;20470;-81
2022/07/22 11:36:14;;;;;;;8.70;7.90;;;28.80;32.00;;;;;;5090619;28;20455;-80
2022/07/22 11:38:46;;;;;;;8.40;7.70;;;28.80;31.70;;;;;;5094287;28;20498;-78
2022/07/22 11:41:16;;;;;;;8.70;7.90;;;29.10;31.20;;;;;;5093362;28;20470;-78
2022/07/22 11:43:46;;;;;;;9.53;8.60;;;29.20;30.80;;;;;;5088895;28;20481;-78
2022/07/22 11:46:14;;;;;;;8.30;7.50;;;29.20;30.60;;;;;;5094845;28;20465;-78
2022/07/22 11:48:41;;;;;;;8.20;7.40;;;29.20;30.80;;;;;;5107483;28;20461;-78
2022/07/22 11:51:10;;;;;;;11.63;7.87;;;29.20;30.10;;;;;;5102561;28;20457;-81
2022/07/22 11:53:38;;;;;;;8.70;7.80;;;29.10;30.70;;;;;;5107286;28;20466;-80
2022/07/22 11:56:07;;;;;;;9.00;8.27;;;29.60;29.80;;;;;;5096345;28;20516;-80
2022/07/22 11:58:40;;;;;;;8.47;7.67;;;29.60;29.70;;;;;;5092175;28;20554;-78
2022/07/22 12:01:11;;;;;;;11.47;8.50;;;29.70;29.70;;;;;;5094312;28;20460;-79
2022/07/22 12:03:40;;;;;;;8.67;7.87;;;29.90;29.00;;;;;;5092559;28;20562;-78
2022/07/22 12:06:10;;;;;;;8.00;7.20;;;30.00;28.90;;;;;;5098274;28;20407;-79
2022/07/22 12:08:41;;;;;;;9.20;8.10;;;30.20;28.90;;;;;;5078825;28;20465;-79
2022/07/22 12:11:09;;;;;;;8.10;7.30;;;30.10;28.60;;;;;;5089388;28;20449;-79
2022/07/22 12:13:36;;;;;;;9.03;8.33;;;30.10;28.60;;;;;;5092941;28;20446;-80
2022/07/22 12:19:00;;;;;;;9.37;8.47;;;30.50;27.90;;;;;;5114956;27;20643;-79
2022/07/22 12:21:28;;;;;;;8.47;7.77;;;30.20;27.90;;;;;;5104983;28;20819;-80
2022/07/22 12:23:57;;;;;;;9.10;8.30;;;30.20;28.20;;;;;;5113432;28;20445;-81
2022/07/22 12:26:46;;;;;;;12.87;8.17;;;29.90;28.30;;;;;;5113390;28;20627;-80
2022/07/22 12:29:21;;;;;;;8.40;7.60;;;30.00;28.10;;;;;;5116929;28;20896;-80
2022/07/22 12:31:50;;;;;;;9.33;7.53;;;30.20;27.70;;;;;;5117073;28;20510;-79
2022/07/22 12:34:30;;;;;;;8.53;7.80;;;29.90;28.00;;;;;;5112432;27;20594;-78
2022/07/22 12:36:57;;;;;;;8.30;7.63;;;30.10;28.00;;;;;;5116261;28;20450;-79
2022/07/22 12:39:24;;;;;;;8.13;7.43;;;30.20;27.70;;;;;;5109174;28;20438;-79
2022/07/22 12:41:53;;;;;;;8.00;7.30;;;30.50;27.30;;;;;;5107368;28;20576;-78